sensor_id;sensor_type;location;lat;lon;timestamp;P1;durP1;ratioP1;P2;durP2;ratioP2
3225;SDS011;1625;49.884;8.666;2022-12-18T04:26:36;34.27;;;30.80;;
3225;SDS011;1625;49.884;8.666;2022-12-18T04:30:29;35.87;;;32.17;;
3225;SDS011;1625;49.884;8.666;2022-12-18T04:34:04;37.80;;;33.80;;
3225;SDS011;1625;49.884;8.666;2022-12-18T04:41:08;35.10;;;31.40;;
3225;SDS011;1625;49.884;8.666;2022-12-18T04:44:43;35.53;;;31.67;;
3225;SDS011;1625;49.884;8.666;2022-12-18T04:51:55;58.63;;;46.30;;
3225;SDS011;1625;49.884;8.666;2022-12-18T04:55:31;41.10;;;36.37;;
3225;SDS011;1625;49.884;8.666;2022-12-18T05:02:14;37.37;;;33.47;;
3225;SDS011;1625;49.884;8.666;2022-12-18T05:08:57;38.73;;;33.20;;
3225;SDS011;1625;49.884;8.666;2022-12-18T05:46:27;36.20;;;32.30;;
3225;SDS011;1625;49.884;8.666;2022-12-18T05:53:25;36.50;;;32.60;;
3225;SDS011;1625;49.884;8.666;2022-12-18T05:56:35;35.47;;;31.67;;
3225;SDS011;1625;49.884;8.666;2022-12-18T06:00:03;38.20;;;34.27;;
3225;SDS011;1625;49.884;8.666;2022-12-18T06:02:40;34.00;;;30.33;;
3225;SDS011;1625;49.884;8.666;2022-12-18T06:05:15;35.37;;;31.60;;
3225;SDS011;1625;49.884;8.666;2022-12-18T06:07:41;36.63;;;31.90;;
3225;SDS011;1625;49.884;8.666;2022-12-18T06:10:07;38.60;;;34.40;;
3225;SDS011;1625;49.884;8.666;2022-12-18T06:12:33;36.70;;;32.27;;
3225;SDS011;1625;49.884;8.666;2022-12-18T06:14:59;35.97;;;32.17;;
3225;SDS011;1625;49.884;8.666;2022-12-18T06:17:29;36.23;;;32.50;;
3225;SDS011;1625;49.884;8.666;2022-12-18T06:19:55;36.77;;;32.70;;
3225;SDS011;1625;49.884;8.666;2022-12-18T06:22:21;36.50;;;32.60;;
3225;SDS011;1625;49.884;8.666;2022-12-18T06:24:48;36.60;;;32.60;;
3225;SDS011;1625;49.884;8.666;2022-12-18T06:27:14;38.87;;;34.83;;
3225;SDS011;1625;49.884;8.666;2022-12-18T06:29:40;37.13;;;32.93;;
3225;SDS011;1625;49.884;8.666;2022-12-18T06:32:07;36.47;;;32.63;;
3225;SDS011;1625;49.884;8.666;2022-12-18T06:34:34;36.13;;;32.53;;
3225;SDS011;1625;49.884;8.666;2022-12-18T06:37:02;36.00;;;32.13;;
3225;SDS011;1625;49.884;8.666;2022-12-18T06:39:28;36.77;;;32.97;;
3225;SDS011;1625;49.884;8.666;2022-12-18T06:41:54;37.43;;;33.57;;
3225;SDS011;1625;49.884;8.666;2022-12-18T06:44:21;37.30;;;33.30;;
3225;SDS011;1625;49.884;8.666;2022-12-18T06:46:47;36.70;;;32.90;;
3225;SDS011;1625;49.884;8.666;2022-12-18T06:49:14;38.07;;;34.00;;
3225;SDS011;1625;49.884;8.666;2022-12-18T06:51:41;37.23;;;33.43;;
3225;SDS011;1625;49.884;8.666;2022-12-18T06:54:07;37.60;;;33.80;;
3225;SDS011;1625;49.884;8.666;2022-12-18T06:56:34;37.80;;;33.90;;
3225;SDS011;1625;49.884;8.666;2022-12-18T07:02:29;36.20;;;32.47;;
3225;SDS011;1625;49.884;8.666;2022-12-18T07:04:57;36.33;;;32.40;;
3225;SDS011;1625;49.884;8.666;2022-12-18T08:04:49;38.33;;;34.27;;
3225;SDS011;1625;49.884;8.666;2022-12-18T08:25:43;38.80;;;34.90;;
3225;SDS011;1625;49.884;8.666;2022-12-18T14:40:00;34.70;;;25.60;;
3225;SDS011;1625;49.884;8.666;2022-12-18T15:02:55;34.37;;;26.80;;
3225;SDS011;1625;49.884;8.666;2022-12-18T15:16:21;35.60;;;27.30;;
3225;SDS011;1625;49.884;8.666;2022-12-18T15:26:36;32.60;;;26.23;;
3225;SDS011;1625;49.884;8.666;2022-12-18T15:30:17;35.07;;;26.77;;
3225;SDS011;1625;49.884;8.666;2022-12-18T15:47:16;36.30;;;28.50;;
3225;SDS011;1625;49.884;8.666;2022-12-18T15:49:42;34.33;;;25.57;;
3225;SDS011;1625;49.884;8.666;2022-12-18T15:52:07;34.00;;;28.10;;
3225;SDS011;1625;49.884;8.666;2022-12-18T15:54:42;37.50;;;25.20;;
3225;SDS011;1625;49.884;8.666;2022-12-18T15:58:06;33.27;;;26.33;;
3225;SDS011;1625;49.884;8.666;2022-12-18T16:00:39;31.53;;;24.90;;
3225;SDS011;1625;49.884;8.666;2022-12-18T16:03:08;33.77;;;26.10;;
3225;SDS011;1625;49.884;8.666;2022-12-18T16:06:37;32.30;;;25.40;;
3225;SDS011;1625;49.884;8.666;2022-12-18T17:30:18;41.33;;;31.60;;
3225;SDS011;1625;49.884;8.666;2022-12-18T17:32:43;38.87;;;28.60;;
3225;SDS011;1625;49.884;8.666;2022-12-18T17:35:09;38.73;;;31.20;;
3225;SDS011;1625;49.884;8.666;2022-12-18T17:37:34;39.70;;;29.90;;
3225;SDS011;1625;49.884;8.666;2022-12-18T17:40:00;39.77;;;30.70;;
3225;SDS011;1625;49.884;8.666;2022-12-18T17:42:26;37.97;;;29.07;;
3225;SDS011;1625;49.884;8.666;2022-12-18T17:44:51;34.93;;;24.50;;
3225;SDS011;1625;49.884;8.666;2022-12-18T17:47:17;35.17;;;27.10;;
3225;SDS011;1625;49.884;8.666;2022-12-18T17:49:43;41.43;;;30.87;;
3225;SDS011;1625;49.884;8.666;2022-12-18T17:52:09;34.00;;;27.87;;
3225;SDS011;1625;49.884;8.666;2022-12-18T17:54:35;35.17;;;29.27;;
3225;SDS011;1625;49.884;8.666;2022-12-18T17:57:03;34.87;;;28.60;;
3225;SDS011;1625;49.884;8.666;2022-12-18T17:59:30;37.33;;;29.40;;
3225;SDS011;1625;49.884;8.666;2022-12-18T18:01:56;36.17;;;28.80;;
3225;SDS011;1625;49.884;8.666;2022-12-18T18:04:21;40.37;;;30.87;;
3225;SDS011;1625;49.884;8.666;2022-12-18T18:06:50;36.43;;;29.60;;
3225;SDS011;1625;49.884;8.666;2022-12-18T18:09:16;39.23;;;29.27;;
3225;SDS011;1625;49.884;8.666;2022-12-18T18:11:42;40.20;;;31.30;;
3225;SDS011;1625;49.884;8.666;2022-12-18T18:14:34;38.60;;;30.40;;
3225;SDS011;1625;49.884;8.666;2022-12-18T18:17:00;37.87;;;30.33;;
3225;SDS011;1625;49.884;8.666;2022-12-18T18:19:26;37.37;;;30.60;;
3225;SDS011;1625;49.884;8.666;2022-12-18T18:21:52;36.03;;;29.30;;
3225;SDS011;1625;49.884;8.666;2022-12-18T18:24:18;38.20;;;30.00;;
3225;SDS011;1625;49.884;8.666;2022-12-18T18:26:47;41.23;;;31.27;;
3225;SDS011;1625;49.884;8.666;2022-12-18T18:29:16;39.57;;;30.47;;
3225;SDS011;1625;49.884;8.666;2022-12-18T18:31:44;36.53;;;28.30;;
3225;SDS011;1625;49.884;8.666;2022-12-18T18:34:16;37.63;;;29.93;;
3225;SDS011;1625;49.884;8.666;2022-12-18T18:36:44;37.03;;;28.73;;
3225;SDS011;1625;49.884;8.666;2022-12-18T18:39:10;33.80;;;27.60;;
3225;SDS011;1625;49.884;8.666;2022-12-18T18:41:36;39.97;;;28.37;;
3225;SDS011;1625;49.884;8.666;2022-12-18T18:44:02;34.23;;;27.30;;
3225;SDS011;1625;49.884;8.666;2022-12-18T18:46:28;37.97;;;28.00;;
3225;SDS011;1625;49.884;8.666;2022-12-18T18:48:54;36.23;;;28.10;;
3225;SDS011;1625;49.884;8.666;2022-12-18T18:51:20;38.33;;;27.77;;
3225;SDS011;1625;49.884;8.666;2022-12-18T18:53:46;36.60;;;28.30;;
3225;SDS011;1625;49.884;8.666;2022-12-18T18:56:14;39.60;;;29.27;;
3225;SDS011;1625;49.884;8.666;2022-12-18T18:58:41;40.23;;;32.10;;
3225;SDS011;1625;49.884;8.666;2022-12-18T19:01:09;39.20;;;28.37;;
3225;SDS011;1625;49.884;8.666;2022-12-18T19:03:36;39.50;;;28.30;;
3225;SDS011;1625;49.884;8.666;2022-12-18T19:06:03;35.10;;;21.47;;
3225;SDS011;1625;49.884;8.666;2022-12-18T19:08:31;30.53;;;18.30;;
3225;SDS011;1625;49.884;8.666;2022-12-18T19:10:59;32.00;;;19.77;;
3225;SDS011;1625;49.884;8.666;2022-12-18T19:13:27;29.33;;;17.90;;
3225;SDS011;1625;49.884;8.666;2022-12-18T19:16:05;32.10;;;18.20;;
3225;SDS011;1625;49.884;8.666;2022-12-18T19:18:32;26.10;;;16.20;;
3225;SDS011;1625;49.884;8.666;2022-12-18T19:20:59;26.73;;;16.77;;
3225;SDS011;1625;49.884;8.666;2022-12-18T19:23:26;27.83;;;16.70;;
3225;SDS011;1625;49.884;8.666;2022-12-18T19:25:52;26.10;;;16.90;;
3225;SDS011;1625;49.884;8.666;2022-12-18T19:28:18;28.47;;;17.73;;
3225;SDS011;1625;49.884;8.666;2022-12-18T19:30:45;26.73;;;16.37;;
3225;SDS011;1625;49.884;8.666;2022-12-18T19:33:11;31.20;;;18.17;;
3225;SDS011;1625;49.884;8.666;2022-12-18T19:35:37;31.10;;;17.20;;
3225;SDS011;1625;49.884;8.666;2022-12-18T19:38:02;31.83;;;16.90;;
3225;SDS011;1625;49.884;8.666;2022-12-18T19:40:28;26.03;;;16.90;;
3225;SDS011;1625;49.884;8.666;2022-12-18T19:42:53;27.40;;;19.03;;
3225;SDS011;1625;49.884;8.666;2022-12-18T19:45:19;28.60;;;17.33;;
3225;SDS011;1625;49.884;8.666;2022-12-18T19:47:44;27.20;;;17.00;;
3225;SDS011;1625;49.884;8.666;2022-12-18T19:50:10;28.17;;;16.23;;
3225;SDS011;1625;49.884;8.666;2022-12-18T19:52:35;31.50;;;15.83;;
3225;SDS011;1625;49.884;8.666;2022-12-18T19:55:01;31.77;;;17.60;;
3225;SDS011;1625;49.884;8.666;2022-12-18T19:57:27;29.03;;;18.67;;
3225;SDS011;1625;49.884;8.666;2022-12-18T19:59:52;32.17;;;19.63;;
3225;SDS011;1625;49.884;8.666;2022-12-18T20:02:18;31.17;;;17.80;;
3225;SDS011;1625;49.884;8.666;2022-12-18T20:04:44;33.07;;;20.13;;
3225;SDS011;1625;49.884;8.666;2022-12-18T20:07:10;30.13;;;20.30;;
3225;SDS011;1625;49.884;8.666;2022-12-18T20:09:36;34.77;;;19.70;;
3225;SDS011;1625;49.884;8.666;2022-12-18T20:12:02;32.33;;;17.87;;
3225;SDS011;1625;49.884;8.666;2022-12-18T20:14:28;33.27;;;18.90;;
3225;SDS011;1625;49.884;8.666;2022-12-18T20:16:53;27.17;;;17.03;;
3225;SDS011;1625;49.884;8.666;2022-12-18T20:19:19;27.93;;;17.70;;
3225;SDS011;1625;49.884;8.666;2022-12-18T20:21:45;27.33;;;16.27;;
3225;SDS011;1625;49.884;8.666;2022-12-18T20:24:11;24.93;;;17.47;;
3225;SDS011;1625;49.884;8.666;2022-12-18T20:26:37;31.97;;;16.40;;
3225;SDS011;1625;49.884;8.666;2022-12-18T20:29:02;31.83;;;16.90;;
3225;SDS011;1625;49.884;8.666;2022-12-18T20:31:28;27.53;;;16.10;;
3225;SDS011;1625;49.884;8.666;2022-12-18T20:33:57;31.10;;;17.90;;
3225;SDS011;1625;49.884;8.666;2022-12-18T20:36:22;25.67;;;16.30;;
3225;SDS011;1625;49.884;8.666;2022-12-18T20:38:49;25.23;;;15.67;;
3225;SDS011;1625;49.884;8.666;2022-12-18T20:41:18;33.60;;;19.00;;
3225;SDS011;1625;49.884;8.666;2022-12-18T20:43:45;25.70;;;15.77;;
3225;SDS011;1625;49.884;8.666;2022-12-18T20:46:11;30.03;;;17.90;;
3225;SDS011;1625;49.884;8.666;2022-12-18T20:48:39;26.93;;;16.30;;
3225;SDS011;1625;49.884;8.666;2022-12-18T20:51:07;26.23;;;16.93;;
3225;SDS011;1625;49.884;8.666;2022-12-18T20:53:34;27.10;;;16.93;;
3225;SDS011;1625;49.884;8.666;2022-12-18T20:56:04;28.40;;;16.80;;
3225;SDS011;1625;49.884;8.666;2022-12-18T20:58:34;31.40;;;16.37;;
3225;SDS011;1625;49.884;8.666;2022-12-18T21:01:11;28.20;;;18.00;;
3225;SDS011;1625;49.884;8.666;2022-12-18T21:03:39;31.07;;;18.10;;
3225;SDS011;1625;49.884;8.666;2022-12-18T21:06:06;31.77;;;17.73;;
3225;SDS011;1625;49.884;8.666;2022-12-18T21:08:32;24.50;;;16.63;;
3225;SDS011;1625;49.884;8.666;2022-12-18T21:11:16;26.07;;;15.60;;
3225;SDS011;1625;49.884;8.666;2022-12-18T21:14:23;30.23;;;16.87;;
